createdAt,value
2023-05-17T00:00:44.803Z,9.21
2023-05-17T00:01:45.073Z,9.20
2023-05-17T00:02:45.398Z,9.15
2023-05-17T00:03:45.687Z,9.12
2023-05-17T00:04:45.940Z,9.09
2023-05-17T00:05:46.168Z,9.06
2023-05-17T00:06:46.481Z,9.04
2023-05-17T00:07:46.792Z,8.99
2023-05-17T00:08:47.059Z,8.97
2023-05-17T00:09:47.322Z,8.93
2023-05-17T00:10:47.573Z,8.88
2023-05-17T00:11:47.825Z,8.87
2023-05-17T00:12:48.137Z,8.84
2023-05-17T00:13:48.401Z,8.83
2023-05-17T00:14:48.714Z,8.79
2023-05-17T00:15:48.941Z,8.75
2023-05-17T00:16:49.249Z,8.73
2023-05-17T00:17:49.585Z,8.72
2023-05-17T00:18:49.871Z,8.66
2023-05-17T00:19:50.149Z,8.66
2023-05-17T00:20:50.285Z,8.63
2023-05-17T00:21:50.609Z,8.60
2023-05-17T00:22:50.875Z,8.55
2023-05-17T00:23:51.176Z,8.53
2023-05-17T00:24:51.435Z,8.50
2023-05-17T00:25:51.697Z,8.48
2023-05-17T00:26:51.984Z,8.45
2023-05-17T00:27:52.270Z,8.45
2023-05-17T00:28:52.607Z,8.40
2023-05-17T00:29:52.813Z,8.36
2023-05-17T00:30:53.098Z,8.35
2023-05-17T00:31:53.380Z,8.33
2023-05-17T00:32:53.765Z,8.33
2023-05-17T00:33:53.948Z,8.30
2023-05-17T00:34:54.238Z,8.28
2023-05-17T00:35:54.475Z,8.25
2023-05-17T00:36:54.763Z,8.22
2023-05-17T00:37:55.024Z,8.25
2023-05-17T00:38:55.307Z,8.28
2023-05-17T00:39:55.578Z,8.30
2023-05-17T00:40:55.875Z,8.30
2023-05-17T00:41:56.173Z,8.29
2023-05-17T00:42:56.450Z,8.28
2023-05-17T00:43:56.717Z,8.29
2023-05-17T00:44:57.030Z,8.29
2023-05-17T00:45:57.335Z,8.30
2023-05-17T00:46:57.634Z,8.29
2023-05-17T00:47:58.128Z,8.29
2023-05-17T00:48:58.177Z,8.28
2023-05-17T00:49:58.474Z,8.25
2023-05-17T00:50:58.748Z,8.21
2023-05-17T00:51:59.020Z,8.17
2023-05-17T00:52:59.387Z,8.14
2023-05-17T00:53:59.621Z,8.10
2023-05-17T00:54:59.939Z,8.10
2023-05-17T00:56:00.261Z,8.07
2023-05-17T00:57:00.525Z,8.10
2023-05-17T00:58:00.789Z,8.10
2023-05-17T00:59:01.080Z,8.10
2023-05-17T01:00:01.419Z,8.11
2023-05-17T01:01:01.661Z,8.15
2023-05-17T01:02:01.947Z,8.21
2023-05-17T01:03:02.338Z,8.22
2023-05-17T01:04:02.559Z,8.26
2023-05-17T01:05:02.998Z,8.32
2023-05-17T01:06:03.192Z,8.29
2023-05-17T01:07:03.463Z,8.32
2023-05-17T01:08:03.757Z,8.39
2023-05-17T01:09:04.035Z,8.45
2023-05-17T01:10:04.332Z,8.53
2023-05-17T01:11:04.620Z,8.57
2023-05-17T01:12:04.870Z,8.62
2023-05-17T01:13:05.216Z,8.66
2023-05-17T01:14:05.464Z,8.69
2023-05-17T01:15:05.751Z,8.72
2023-05-17T01:16:06.014Z,8.73
2023-05-17T01:17:06.310Z,8.71
2023-05-17T01:18:06.662Z,8.72
2023-05-17T01:19:06.893Z,8.71
2023-05-17T01:20:07.261Z,8.71
2023-05-17T01:21:07.421Z,8.73
2023-05-17T01:22:07.651Z,8.78
2023-05-17T01:23:07.974Z,8.78
2023-05-17T01:24:08.239Z,8.83
2023-05-17T01:25:08.545Z,8.84
2023-05-17T01:26:08.824Z,8.84
2023-05-17T01:27:09.094Z,8.86
2023-05-17T01:28:09.412Z,8.84
2023-05-17T01:29:09.673Z,8.86
2023-05-17T01:30:09.974Z,8.83
2023-05-17T01:31:10.274Z,8.83
2023-05-17T01:32:10.525Z,8.84
2023-05-17T01:33:10.939Z,8.81
2023-05-17T01:34:11.048Z,8.83
2023-05-17T01:35:11.390Z,8.79
2023-05-17T01:36:11.636Z,8.79
2023-05-17T01:37:11.973Z,8.79
2023-05-17T01:38:12.203Z,8.81
2023-05-17T01:39:12.488Z,8.81
2023-05-17T01:40:12.753Z,8.79
2023-05-17T01:41:13.054Z,8.79
2023-05-17T01:42:13.397Z,8.78
2023-05-17T01:43:21.370Z,8.76
2023-05-17T01:44:13.911Z,8.78
2023-05-17T01:45:14.182Z,8.81
2023-05-17T01:46:14.512Z,8.78
2023-05-17T01:47:14.816Z,8.79
2023-05-17T01:48:15.131Z,8.75
2023-05-17T01:49:15.379Z,8.73
2023-05-17T01:50:15.680Z,8.73
2023-05-17T01:51:15.980Z,8.69
2023-05-17T01:52:16.309Z,8.69
2023-05-17T01:53:16.588Z,8.66
2023-05-17T01:54:16.845Z,8.69
2023-05-17T01:55:17.151Z,8.72
2023-05-17T01:56:17.872Z,8.73
2023-05-17T01:57:24.814Z,8.72
2023-05-17T01:58:18.057Z,8.73
2023-05-17T01:59:18.348Z,8.72
2023-05-17T02:00:18.668Z,8.73
2023-05-17T02:01:18.996Z,8.76
2023-05-17T02:02:19.306Z,8.78
2023-05-17T02:03:19.548Z,8.81
2023-05-17T02:04:19.941Z,8.83
2023-05-17T02:05:20.080Z,8.86
2023-05-17T02:06:20.349Z,8.87
2023-05-17T02:07:20.645Z,8.88
2023-05-17T02:08:20.924Z,8.90
2023-05-17T02:09:21.234Z,8.91
2023-05-17T02:10:21.547Z,8.91
2023-05-17T02:11:21.866Z,8.97
2023-05-17T02:12:22.144Z,8.99
2023-05-17T02:13:22.388Z,9.02
2023-05-17T02:14:22.671Z,9.05
2023-05-17T02:15:23.112Z,9.12
2023-05-17T02:16:23.216Z,9.15
2023-05-17T02:17:23.535Z,9.18
2023-05-17T02:18:23.939Z,9.18
2023-05-17T02:19:24.085Z,9.20
2023-05-17T02:20:24.376Z,9.18
2023-05-17T02:21:24.654Z,9.16
2023-05-17T02:22:24.961Z,9.12
2023-05-17T02:23:25.219Z,9.12
2023-05-17T02:24:25.537Z,9.12
2023-05-17T02:25:25.960Z,9.10
2023-05-17T02:26:26.165Z,9.09
2023-05-17T02:27:26.448Z,9.12
2023-05-17T02:28:26.733Z,9.10
2023-05-17T02:29:27.019Z,9.10
2023-05-17T02:30:27.317Z,9.10
2023-05-17T02:31:27.613Z,9.10
2023-05-17T02:32:28.065Z,9.09
2023-05-17T02:33:28.240Z,9.10
2023-05-17T02:34:28.530Z,9.10
2023-05-17T02:35:29.192Z,9.09
2023-05-17T02:36:29.109Z,9.10
2023-05-17T02:37:29.426Z,9.12
2023-05-17T02:38:29.698Z,9.12
2023-05-17T02:39:30.033Z,9.09
2023-05-17T02:40:30.302Z,9.10
2023-05-17T02:41:30.574Z,9.06
2023-05-17T02:42:30.878Z,9.05
2023-05-17T02:43:31.154Z,9.05
2023-05-17T02:44:31.408Z,9.04
2023-05-17T02:45:31.649Z,9.02
2023-05-17T02:46:31.921Z,9.01
2023-05-17T02:47:32.303Z,9.01
2023-05-17T02:48:32.458Z,9.01
2023-05-17T02:49:32.726Z,9.01
2023-05-17T02:50:33.094Z,9.02
2023-05-17T02:51:33.357Z,9.01
2023-05-17T02:52:33.616Z,9.01
2023-05-17T02:53:33.874Z,8.97
2023-05-17T02:54:34.150Z,8.97
2023-05-17T02:55:34.561Z,8.97
2023-05-17T02:56:34.783Z,8.96
2023-05-17T02:57:35.065Z,8.94
2023-05-17T02:58:35.321Z,8.93
2023-05-17T02:59:35.584Z,8.93
2023-05-17T03:00:35.884Z,8.90
2023-05-17T03:01:36.164Z,8.88
2023-05-17T03:02:36.667Z,8.86
2023-05-17T03:03:36.950Z,8.86
2023-05-17T03:04:37.204Z,8.83
2023-05-17T03:05:37.454Z,8.84
2023-05-17T03:06:37.746Z,8.83
2023-05-17T03:07:38.037Z,8.81
2023-05-17T03:08:38.343Z,8.79
2023-05-17T03:09:38.622Z,8.76
2023-05-17T03:10:38.941Z,8.75
2023-05-17T03:11:39.229Z,8.73
2023-05-17T03:12:39.520Z,8.72
2023-05-17T03:13:39.811Z,8.68
2023-05-17T03:14:40.096Z,8.68
2023-05-17T03:15:40.399Z,8.65
2023-05-17T03:16:40.653Z,8.62
2023-05-17T03:17:41.081Z,8.58
2023-05-17T03:18:41.329Z,8.57
2023-05-17T03:19:41.513Z,8.55
2023-05-17T03:20:41.783Z,8.51
2023-05-17T03:21:42.091Z,8.48
2023-05-17T03:22:42.437Z,8.50
2023-05-17T03:23:42.707Z,8.50
2023-05-17T03:24:43.001Z,8.48
2023-05-17T03:25:43.280Z,8.45
2023-05-17T03:26:43.549Z,8.40
2023-05-17T03:27:43.893Z,8.39
2023-05-17T03:28:44.164Z,8.36
2023-05-17T03:29:44.440Z,8.32
2023-05-17T03:30:44.798Z,8.29
2023-05-17T03:31:45.065Z,8.29
2023-05-17T03:32:45.503Z,8.26
2023-05-17T03:33:45.758Z,8.22
2023-05-17T03:34:45.917Z,8.20
2023-05-17T03:35:46.262Z,8.15
2023-05-17T03:36:46.511Z,8.12
2023-05-17T03:37:46.824Z,8.10
2023-05-17T03:38:47.173Z,8.07
2023-05-17T03:39:47.485Z,8.02
2023-05-17T03:40:47.814Z,7.97
2023-05-17T03:41:48.196Z,7.94
2023-05-17T03:42:48.483Z,7.94
2023-05-17T03:43:48.801Z,7.90
2023-05-17T03:44:49.149Z,7.87
2023-05-17T03:45:49.459Z,7.85
2023-05-17T03:46:49.653Z,7.82
2023-05-17T03:47:49.993Z,7.81
2023-05-17T03:48:50.484Z,7.82
2023-05-17T03:49:50.621Z,7.84
2023-05-17T03:50:50.958Z,7.82
2023-05-17T03:51:51.201Z,7.82
2023-05-17T03:52:51.515Z,7.79
2023-05-17T03:53:51.899Z,7.79
2023-05-17T03:54:52.223Z,7.81
2023-05-17T03:55:52.492Z,7.82
2023-05-17T03:56:52.823Z,7.82
2023-05-17T03:57:53.108Z,7.81
2023-05-17T03:58:53.446Z,7.81
2023-05-17T03:59:53.750Z,7.82
2023-05-17T04:00:54.036Z,7.82
2023-05-17T04:01:54.325Z,7.84
2023-05-17T04:02:54.711Z,7.84
2023-05-17T04:03:55.014Z,7.85
2023-05-17T04:04:55.182Z,7.84
2023-05-17T04:05:55.532Z,7.84
2023-05-17T04:06:55.832Z,7.85
2023-05-17T04:07:56.165Z,7.89
2023-05-17T04:08:56.464Z,7.90
2023-05-17T04:09:56.784Z,7.92
2023-05-17T04:10:57.099Z,7.93
2023-05-17T04:11:57.386Z,7.94
2023-05-17T04:12:57.688Z,7.93
2023-05-17T04:13:57.985Z,7.96
2023-05-17T04:14:58.304Z,7.96
2023-05-17T04:15:58.636Z,7.97
2023-05-17T04:16:58.913Z,7.99
2023-05-17T04:17:59.289Z,8.02
2023-05-17T04:18:59.684Z,8.04
2023-05-17T04:19:59.826Z,8.10
2023-05-17T04:21:00.136Z,8.11
2023-05-17T04:22:00.481Z,8.14
2023-05-17T04:23:00.776Z,8.17
2023-05-17T04:24:01.106Z,8.20
2023-05-17T04:25:01.420Z,8.21
2023-05-17T04:26:01.817Z,8.22
2023-05-17T04:27:03.498Z,8.26
2023-05-17T04:28:02.329Z,8.30
2023-05-17T04:29:02.644Z,8.32
2023-05-17T04:30:02.958Z,8.37
2023-05-17T04:31:03.220Z,8.40
2023-05-17T04:32:03.503Z,8.45
2023-05-17T04:33:03.962Z,8.50
2023-05-17T04:34:04.175Z,8.51
2023-05-17T04:35:04.611Z,8.55
2023-05-17T04:36:04.772Z,8.58
2023-05-17T04:37:05.033Z,8.63
2023-05-17T04:38:05.350Z,8.68
2023-05-17T04:39:05.671Z,8.71
2023-05-17T04:40:06.004Z,8.75
2023-05-17T04:41:06.356Z,8.79
2023-05-17T04:42:06.645Z,8.81
2023-05-17T04:43:06.953Z,8.84
2023-05-17T04:44:07.268Z,8.90
2023-05-17T04:45:07.566Z,8.94
2023-05-17T04:46:07.882Z,9.01
2023-05-17T04:47:08.211Z,9.06
2023-05-17T04:48:08.597Z,9.13
2023-05-17T04:49:08.783Z,9.18
2023-05-17T04:50:09.135Z,9.20
2023-05-17T04:51:09.528Z,9.23
2023-05-17T04:52:09.685Z,9.24
2023-05-17T04:53:09.995Z,9.27
2023-05-17T04:54:10.312Z,9.28
2023-05-17T04:55:10.674Z,9.30
2023-05-17T04:56:10.931Z,9.32
2023-05-17T04:57:11.270Z,9.34
2023-05-17T04:58:11.559Z,9.34
2023-05-17T04:59:11.826Z,9.34
2023-05-17T05:00:12.178Z,9.35
2023-05-17T05:01:12.503Z,9.38
2023-05-17T05:02:12.925Z,9.40
2023-05-17T05:03:13.298Z,9.40
2023-05-17T05:04:13.603Z,9.42
2023-05-17T05:05:13.761Z,9.45
2023-05-17T05:06:14.077Z,9.43
2023-05-17T05:07:14.468Z,9.46
2023-05-17T05:08:14.589Z,9.48
2023-05-17T05:09:14.905Z,9.50
2023-05-17T05:10:15.308Z,9.56
2023-05-17T05:11:15.465Z,9.58
2023-05-17T05:12:15.798Z,9.61
2023-05-17T05:13:16.162Z,9.61
2023-05-17T05:14:16.455Z,9.64
2023-05-17T05:15:16.781Z,9.64
2023-05-17T05:16:17.086Z,9.64
2023-05-17T05:17:17.388Z,9.64
2023-05-17T05:18:17.807Z,9.68
2023-05-17T05:19:18.031Z,9.71
2023-05-17T05:20:18.263Z,9.75
2023-05-17T05:21:19.029Z,9.81
2023-05-17T05:22:18.870Z,9.83
2023-05-17T05:23:19.313Z,9.91
2023-05-17T05:24:19.521Z,9.96
2023-05-17T05:25:19.885Z,10.01
2023-05-17T05:26:19.981Z,10.09
2023-05-17T05:27:20.300Z,10.17
2023-05-17T05:28:20.672Z,10.26
2023-05-17T05:29:20.896Z,10.39
2023-05-17T05:30:21.118Z,10.52
2023-05-17T05:31:21.518Z,10.62
2023-05-17T05:32:21.682Z,10.73
2023-05-17T05:33:22.114Z,10.92
2023-05-17T05:34:22.267Z,11.10
2023-05-17T05:35:22.601Z,11.20
2023-05-17T05:36:22.926Z,11.28
2023-05-17T05:37:23.266Z,11.31
2023-05-17T05:38:23.604Z,11.27
2023-05-17T05:39:23.916Z,11.19
2023-05-17T05:40:24.285Z,11.14
2023-05-17T05:41:24.489Z,11.10
2023-05-17T05:42:24.816Z,11.02
2023-05-17T05:43:25.136Z,10.99
2023-05-17T05:44:25.988Z,10.98
2023-05-17T05:45:25.853Z,10.99
2023-05-17T05:46:26.134Z,11.03
2023-05-17T05:47:26.349Z,11.16
2023-05-17T05:48:26.809Z,11.24
2023-05-17T05:49:26.994Z,11.31
2023-05-17T05:50:27.624Z,11.36
2023-05-17T05:51:27.603Z,11.41
2023-05-17T05:52:27.846Z,11.38
2023-05-17T05:53:28.156Z,11.39
2023-05-17T05:54:28.481Z,11.36
2023-05-17T05:55:28.815Z,11.32
2023-05-17T05:56:29.165Z,11.32
2023-05-17T05:57:29.425Z,11.28
2023-05-17T05:58:29.618Z,11.27
2023-05-17T05:59:29.942Z,11.19
2023-05-17T06:00:30.486Z,11.10
2023-05-17T06:01:30.649Z,11.03
2023-05-17T06:02:30.855Z,10.99
2023-05-17T06:03:31.244Z,10.96
2023-05-17T06:04:44.021Z,10.96
2023-05-17T06:05:32.791Z,10.96
2023-05-17T06:06:32.207Z,10.91
2023-05-17T06:07:32.330Z,10.89
2023-05-17T06:08:32.620Z,10.88
2023-05-17T06:09:32.951Z,10.86
2023-05-17T06:10:33.251Z,10.81
2023-05-17T06:11:33.579Z,10.78
2023-05-17T06:12:33.918Z,10.76
2023-05-17T06:13:34.157Z,10.73
2023-05-17T06:14:34.371Z,10.68
2023-05-17T06:15:34.694Z,10.62
2023-05-17T06:16:35.038Z,10.55
2023-05-17T06:17:35.416Z,10.51
2023-05-17T06:18:35.767Z,10.47
2023-05-17T06:19:36.047Z,10.44
2023-05-17T06:20:36.239Z,10.42
2023-05-17T06:21:36.692Z,10.42
2023-05-17T06:22:36.788Z,10.42
2023-05-17T06:23:37.118Z,10.44
2023-05-17T06:24:37.474Z,10.52
2023-05-17T06:25:37.701Z,10.51
2023-05-17T06:26:38.935Z,10.55
2023-05-17T06:27:38.200Z,10.56
2023-05-17T06:28:38.403Z,10.56
2023-05-17T06:29:42.358Z,10.53
2023-05-17T06:30:39.007Z,10.47
2023-05-17T06:31:39.342Z,10.47
2023-05-17T06:32:39.608Z,10.46
2023-05-17T06:33:39.972Z,10.43
2023-05-17T06:34:40.118Z,10.42
2023-05-17T06:35:54.680Z,10.42
2023-05-17T06:36:41.739Z,10.40
2023-05-17T06:37:41.081Z,10.40
2023-05-17T06:38:41.450Z,10.39
2023-05-17T06:39:42.624Z,10.37
2023-05-17T06:40:41.899Z,10.39
2023-05-17T06:41:42.218Z,10.42
2023-05-17T06:42:42.599Z,10.42
2023-05-17T06:43:42.832Z,10.51
2023-05-17T06:44:43.044Z,10.63
2023-05-17T06:45:43.409Z,10.81
2023-05-17T06:46:43.662Z,11.01
2023-05-17T06:47:43.938Z,11.24
2023-05-17T06:48:44.246Z,11.34
2023-05-17T06:49:44.425Z,11.49
2023-05-17T06:50:44.783Z,11.61
2023-05-17T06:51:45.031Z,11.75
2023-05-17T06:52:45.271Z,11.75
2023-05-17T06:53:45.631Z,11.74
2023-05-17T06:54:45.941Z,11.83
2023-05-17T06:55:46.276Z,11.99
2023-05-17T06:56:46.633Z,12.11
2023-05-17T06:57:47.004Z,12.19
2023-05-17T06:58:47.232Z,12.15
2023-05-17T06:59:47.472Z,12.27
2023-05-17T07:00:47.837Z,12.42
2023-05-17T07:01:48.113Z,12.54
2023-05-17T07:02:48.341Z,12.62
2023-05-17T07:03:48.631Z,12.84
2023-05-17T07:04:48.931Z,12.87
2023-05-17T07:05:49.134Z,13.06
2023-05-17T07:06:49.314Z,13.38
2023-05-17T07:07:49.681Z,13.71
2023-05-17T07:08:49.894Z,14.24
2023-05-17T07:09:50.267Z,14.65
2023-05-17T07:10:50.512Z,15.06
2023-05-17T07:11:50.759Z,15.26
2023-05-17T07:12:51.032Z,15.60
2023-05-17T07:13:53.591Z,15.51
2023-05-17T07:14:51.517Z,15.59
2023-05-17T07:15:51.752Z,15.59
2023-05-17T07:16:52.102Z,15.38
2023-05-17T07:17:52.494Z,14.98
2023-05-17T07:18:52.744Z,14.75
2023-05-17T07:19:53.104Z,14.86
2023-05-17T07:20:53.212Z,14.87
2023-05-17T07:21:53.444Z,14.74
2023-05-17T07:22:53.687Z,14.54
2023-05-17T07:23:53.935Z,14.39
2023-05-17T07:24:54.157Z,14.75
2023-05-17T07:25:54.393Z,15.46
2023-05-17T07:26:54.657Z,16.07
2023-05-17T07:27:54.909Z,18.33
2023-05-17T07:28:55.136Z,20.03
2023-05-17T07:29:55.372Z,21.57
2023-05-17T07:30:55.621Z,21.63
2023-05-17T07:31:55.850Z,21.60
2023-05-17T07:32:56.142Z,22.87
2023-05-17T07:33:56.402Z,23.71
2023-05-17T07:34:56.594Z,23.07
2023-05-17T07:35:57.954Z,22.20
2023-05-17T07:36:57.180Z,20.18
2023-05-17T07:37:57.516Z,18.52
2023-05-17T07:38:57.850Z,17.46
2023-05-17T07:39:58.158Z,16.63
2023-05-17T07:40:58.495Z,15.76
2023-05-17T07:41:58.814Z,15.19
2023-05-17T07:42:59.155Z,14.83
2023-05-17T07:43:59.497Z,14.64
2023-05-17T07:44:59.733Z,14.69
2023-05-17T07:45:59.980Z,15.28
2023-05-17T07:47:00.320Z,15.54
2023-05-17T07:48:00.501Z,15.94
2023-05-17T07:49:00.786Z,16.53
2023-05-17T07:50:00.964Z,16.81
2023-05-17T07:51:01.171Z,17.32
2023-05-17T07:52:01.490Z,18.50
2023-05-17T07:53:01.830Z,18.17
2023-05-17T07:54:02.082Z,18.42
2023-05-17T07:55:02.407Z,19.78
2023-05-17T07:56:02.643Z,21.53
2023-05-17T07:57:03.041Z,22.77
2023-05-17T07:58:03.272Z,23.58
2023-05-17T07:59:03.586Z,23.01
2023-05-17T08:00:03.893Z,23.77
2023-05-17T08:01:04.254Z,22.94
2023-05-17T08:02:04.433Z,21.46
2023-05-17T08:03:04.806Z,20.05
2023-05-17T08:04:05.026Z,19.65
2023-05-17T08:05:05.288Z,19.23
2023-05-17T08:06:05.546Z,19.39
2023-05-17T08:07:05.925Z,19.14
2023-05-17T08:08:05.959Z,18.39
2023-05-17T08:09:06.280Z,17.71
2023-05-17T08:10:06.590Z,16.98
2023-05-17T08:11:06.917Z,16.93
2023-05-17T08:12:07.253Z,17.15
2023-05-17T08:13:07.484Z,18.62
2023-05-17T08:14:07.821Z,17.81
2023-05-17T08:15:08.033Z,18.17
2023-05-17T08:16:13.699Z,19.54
2023-05-17T08:17:09.638Z,20.72
2023-05-17T08:18:09.110Z,22.23
2023-05-17T08:19:09.406Z,22.82
2023-05-17T08:20:09.730Z,22.65
2023-05-17T08:21:09.864Z,23.12
2023-05-17T08:22:10.047Z,22.67
2023-05-17T08:23:10.279Z,23.32
2023-05-17T08:24:10.563Z,23.61
2023-05-17T08:25:10.766Z,23.35
2023-05-17T08:26:11.008Z,23.34
2023-05-17T08:27:11.288Z,23.15
2023-05-17T08:28:11.484Z,22.02
2023-05-17T08:29:11.761Z,21.46
2023-05-17T08:30:15.073Z,22.01
2023-05-17T08:31:13.273Z,22.35
2023-05-17T08:32:12.511Z,21.04
2023-05-17T08:33:12.806Z,19.57
2023-05-17T08:34:13.010Z,19.21
2023-05-17T08:35:13.192Z,18.99
2023-05-17T08:36:13.551Z,18.98
2023-05-17T08:37:13.904Z,19.39
2023-05-17T08:38:14.101Z,20.61
2023-05-17T08:39:14.391Z,21.66
2023-05-17T08:40:14.638Z,20.68
2023-05-17T08:41:14.805Z,19.95
2023-05-17T08:42:15.124Z,18.86
2023-05-17T08:43:15.502Z,17.97
2023-05-17T08:44:15.726Z,17.13
2023-05-17T08:45:15.898Z,16.50
2023-05-17T08:46:16.221Z,16.14
2023-05-17T08:47:16.545Z,15.89
2023-05-17T08:48:16.948Z,15.84
2023-05-17T08:49:17.282Z,15.70
2023-05-17T08:50:17.428Z,15.56
2023-05-17T08:51:17.717Z,15.82
2023-05-17T08:52:18.032Z,15.89
2023-05-17T08:53:18.376Z,16.00
2023-05-17T08:54:18.717Z,16.03
2023-05-17T08:55:18.924Z,16.16
2023-05-17T08:56:19.130Z,16.25
2023-05-17T08:57:19.441Z,16.14
2023-05-17T08:58:19.779Z,15.79
2023-05-17T08:59:20.129Z,15.93
2023-05-17T09:00:20.427Z,16.12
2023-05-17T09:01:20.682Z,16.31
2023-05-17T09:02:20.983Z,16.56
2023-05-17T09:03:21.228Z,16.41
2023-05-17T09:04:21.440Z,16.44
2023-05-17T09:05:21.795Z,16.40
2023-05-17T09:06:21.985Z,16.27
2023-05-17T09:07:22.288Z,16.09
2023-05-17T09:08:22.630Z,15.93
2023-05-17T09:09:22.863Z,15.74
2023-05-17T09:10:23.171Z,15.78
2023-05-17T09:11:23.498Z,15.74
2023-05-17T09:12:25.669Z,15.93
2023-05-17T09:13:24.161Z,16.06
2023-05-17T09:14:24.501Z,16.18
2023-05-17T09:15:24.727Z,16.26
2023-05-17T09:16:25.065Z,16.37
2023-05-17T09:17:25.404Z,16.45
2023-05-17T09:18:25.727Z,16.67
2023-05-17T09:19:26.081Z,16.88
2023-05-17T09:20:26.384Z,16.96
2023-05-17T09:21:26.574Z,16.88
2023-05-17T09:22:26.897Z,16.70
2023-05-17T09:23:27.198Z,16.48
2023-05-17T09:24:27.524Z,16.27
2023-05-17T09:25:27.755Z,16.14
2023-05-17T09:26:28.043Z,16.01
2023-05-17T09:27:28.331Z,15.85
2023-05-17T09:28:28.662Z,15.66
2023-05-17T09:29:28.959Z,15.67
2023-05-17T09:30:30.110Z,15.75
2023-05-17T09:31:29.598Z,15.81
2023-05-17T09:32:29.879Z,15.99
2023-05-17T09:33:30.095Z,16.20
2023-05-17T09:34:30.266Z,16.27
2023-05-17T09:35:30.751Z,16.31
2023-05-17T09:36:30.939Z,16.27
2023-05-17T09:37:31.270Z,16.41
2023-05-17T09:38:31.560Z,16.59
2023-05-17T09:39:31.881Z,16.78
2023-05-17T09:40:32.233Z,16.95
2023-05-17T09:41:32.423Z,17.04
2023-05-17T09:42:32.751Z,16.95
2023-05-17T09:43:33.089Z,17.00
2023-05-17T09:44:33.369Z,17.08
2023-05-17T09:45:33.665Z,17.07
2023-05-17T09:46:33.984Z,16.93
2023-05-17T09:47:34.420Z,16.75
2023-05-17T09:48:34.590Z,16.77
2023-05-17T09:49:34.869Z,16.88
2023-05-17T09:50:35.209Z,16.74
2023-05-17T09:51:35.537Z,16.68
2023-05-17T09:52:35.759Z,16.48
2023-05-17T09:53:36.061Z,16.31
2023-05-17T09:54:36.417Z,16.40
2023-05-17T09:55:37.373Z,16.38
2023-05-17T09:56:36.906Z,16.18
2023-05-17T09:57:37.214Z,15.97
2023-05-17T09:58:37.543Z,16.16
2023-05-17T09:59:37.762Z,16.40
2023-05-17T10:00:38.134Z,16.42
2023-05-17T10:01:38.407Z,16.44
2023-05-17T10:02:38.779Z,16.35
2023-05-17T10:03:39.136Z,16.15
2023-05-17T10:04:39.420Z,16.14
2023-05-17T10:05:39.581Z,15.99
2023-05-17T10:06:47.560Z,15.93
2023-05-17T10:07:41.153Z,15.79
2023-05-17T10:08:40.467Z,15.75
2023-05-17T10:09:40.797Z,15.84
2023-05-17T10:10:41.075Z,15.88
2023-05-17T10:11:41.356Z,16.12
2023-05-17T10:12:41.707Z,16.37
2023-05-17T10:13:41.914Z,16.59
2023-05-17T10:14:42.302Z,16.80
2023-05-17T10:15:42.490Z,16.96
2023-05-17T10:16:42.704Z,16.60
2023-05-17T10:17:45.406Z,16.68
2023-05-17T10:18:43.350Z,16.68
2023-05-17T10:19:43.838Z,16.41
2023-05-17T10:20:43.881Z,16.25
2023-05-17T10:21:44.108Z,16.27
2023-05-17T10:22:44.444Z,16.34
2023-05-17T10:23:44.649Z,16.48
2023-05-17T10:24:44.974Z,16.65
2023-05-17T10:25:45.312Z,16.44
2023-05-17T10:26:45.635Z,16.30
2023-05-17T10:27:45.983Z,16.26
2023-05-17T10:28:46.310Z,16.30
2023-05-17T10:29:49.847Z,16.49
2023-05-17T10:30:46.916Z,16.71
2023-05-17T10:31:47.114Z,16.80
2023-05-17T10:32:47.514Z,16.92
2023-05-17T10:33:47.771Z,16.95
2023-05-17T10:34:57.669Z,16.81
2023-05-17T10:35:49.323Z,16.63
2023-05-17T10:36:48.547Z,16.44
2023-05-17T10:37:48.862Z,16.14
2023-05-17T10:38:49.173Z,16.00
2023-05-17T10:39:49.519Z,15.96
2023-05-17T10:40:49.854Z,15.93
2023-05-17T10:41:50.706Z,15.92
2023-05-17T10:42:50.483Z,16.06
2023-05-17T10:43:50.691Z,16.07
2023-05-17T10:44:50.991Z,16.04
2023-05-17T10:45:51.293Z,16.07
2023-05-17T10:46:51.627Z,16.23
2023-05-17T10:47:51.989Z,16.26
2023-05-17T10:48:52.362Z,16.40
2023-05-17T10:49:52.520Z,16.59
2023-05-17T10:51:00.931Z,16.71
2023-05-17T10:51:54.154Z,16.73
2023-05-17T10:52:53.363Z,16.45
2023-05-17T10:53:53.676Z,16.37
2023-05-17T10:54:55.245Z,16.15
2023-05-17T10:55:54.240Z,16.22
2023-05-17T10:56:54.588Z,16.33
2023-05-17T10:57:54.853Z,16.41
2023-05-17T10:58:55.153Z,16.52
2023-05-17T10:59:55.490Z,16.70
2023-05-17T11:00:56.152Z,16.75
2023-05-17T11:01:56.034Z,16.85
2023-05-17T11:02:56.393Z,17.00
2023-05-17T11:03:56.633Z,16.96
2023-05-17T11:04:56.969Z,17.10
2023-05-17T11:05:57.979Z,17.17
2023-05-17T11:06:57.564Z,17.10
2023-05-17T11:07:57.870Z,17.04
2023-05-17T11:08:58.118Z,17.11
2023-05-17T11:09:58.343Z,17.30
2023-05-17T11:10:58.677Z,17.43
2023-05-17T11:11:58.985Z,17.55
2023-05-17T11:12:59.305Z,17.69
2023-05-17T11:13:59.587Z,17.67
2023-05-17T11:14:59.878Z,17.64
2023-05-17T11:16:00.186Z,17.62
2023-05-17T11:17:00.520Z,17.36
2023-05-17T11:18:00.973Z,17.26
2023-05-17T11:19:01.290Z,17.33
2023-05-17T11:20:01.847Z,17.00
2023-05-17T11:21:01.972Z,16.95
2023-05-17T11:22:02.137Z,17.00
2023-05-17T11:23:02.375Z,17.07
2023-05-17T11:24:02.664Z,17.08
2023-05-17T11:25:02.985Z,17.00
2023-05-17T11:26:15.257Z,17.04
2023-05-17T11:27:04.648Z,17.08
2023-05-17T11:28:03.859Z,17.15
2023-05-17T11:29:04.175Z,16.93
2023-05-17T11:30:04.582Z,16.75
2023-05-17T11:31:04.826Z,16.70
2023-05-17T11:32:05.166Z,16.68
2023-05-17T11:33:11.014Z,16.52
2023-05-17T11:34:06.863Z,16.53
2023-05-17T11:35:06.029Z,16.50
2023-05-17T11:36:06.342Z,16.37
2023-05-17T11:37:06.694Z,16.38
2023-05-17T11:38:07.005Z,16.45
2023-05-17T11:40:07.647Z,16.42
2023-05-17T11:41:10.453Z,16.49
2023-05-17T11:42:09.239Z,16.58
2023-05-17T11:43:08.575Z,16.55
2023-05-17T11:44:08.949Z,16.65
2023-05-17T11:45:09.300Z,16.77
2023-05-17T11:46:09.590Z,16.80
2023-05-17T11:47:10.130Z,16.88
2023-05-17T11:48:10.219Z,16.86
2023-05-17T11:49:12.116Z,16.88
2023-05-17T11:50:11.765Z,16.58
2023-05-17T11:51:10.936Z,16.35
2023-05-17T11:52:11.254Z,16.27
2023-05-17T11:53:11.585Z,16.22
2023-05-17T11:54:11.885Z,16.25
2023-05-17T11:55:12.208Z,16.34
2023-05-17T11:56:12.524Z,16.37
2023-05-17T11:57:12.843Z,16.44
2023-05-17T11:58:13.177Z,16.55
2023-05-17T11:59:13.497Z,16.63
2023-05-17T12:00:13.984Z,16.71
2023-05-17T12:01:14.125Z,16.73
2023-05-17T12:02:14.437Z,16.71
2023-05-17T12:03:14.798Z,16.74
2023-05-17T12:04:15.153Z,16.80
2023-05-17T12:05:15.460Z,16.77
2023-05-17T12:06:15.818Z,16.83
2023-05-17T12:07:16.005Z,16.86
2023-05-17T12:08:16.346Z,16.88
2023-05-17T12:09:16.688Z,16.83
2023-05-17T12:10:16.922Z,16.89
2023-05-17T12:11:17.244Z,16.99
2023-05-17T12:12:17.627Z,17.10
2023-05-17T12:13:17.785Z,17.22
2023-05-17T12:14:18.094Z,17.36
2023-05-17T12:15:18.423Z,17.47
2023-05-17T12:16:18.797Z,17.59
2023-05-17T12:17:18.988Z,17.69
2023-05-17T12:18:19.404Z,17.74
2023-05-17T12:19:19.680Z,17.78
2023-05-17T12:20:19.938Z,17.79
2023-05-17T12:21:20.154Z,17.73
2023-05-17T12:22:20.412Z,17.63
2023-05-17T12:23:20.715Z,17.57
2023-05-17T12:24:21.141Z,17.40
2023-05-17T12:25:21.329Z,17.10
2023-05-17T12:26:21.719Z,16.96
2023-05-17T12:27:21.881Z,16.80
2023-05-17T12:28:22.240Z,16.77
2023-05-17T12:29:22.505Z,16.70
2023-05-17T12:30:22.834Z,16.70
2023-05-17T12:31:23.187Z,16.71
2023-05-17T12:32:23.535Z,16.70
2023-05-17T12:33:23.946Z,16.73
2023-05-17T12:34:24.133Z,16.73
2023-05-17T12:35:24.459Z,16.73
2023-05-17T12:36:24.833Z,16.73
2023-05-17T12:37:25.158Z,16.73
2023-05-17T12:38:25.324Z,16.60
2023-05-17T12:39:25.620Z,16.50
2023-05-17T12:40:25.965Z,16.41
2023-05-17T12:41:26.332Z,16.33
2023-05-17T12:42:26.477Z,16.30
2023-05-17T12:43:26.787Z,16.33
2023-05-17T12:44:27.088Z,16.49
2023-05-17T12:45:27.408Z,16.52
2023-05-17T12:46:27.751Z,16.53
2023-05-17T12:47:28.110Z,16.59
2023-05-17T12:48:28.439Z,16.56
2023-05-17T12:49:28.655Z,16.55
2023-05-17T12:50:29.209Z,16.62
2023-05-17T12:51:29.305Z,16.74
2023-05-17T12:52:29.618Z,16.81
2023-05-17T12:53:29.914Z,16.88
2023-05-17T12:54:30.274Z,16.90
2023-05-17T12:55:30.565Z,17.03
2023-05-17T12:56:30.947Z,17.11
2023-05-17T12:57:31.208Z,17.06
2023-05-17T12:58:31.529Z,17.00
2023-05-17T12:59:31.745Z,16.80
2023-05-17T13:00:32.047Z,16.75
2023-05-17T13:01:32.353Z,16.74
2023-05-17T13:02:32.769Z,16.75
2023-05-17T13:03:33.070Z,16.80
2023-05-17T13:04:33.626Z,16.74
2023-05-17T13:05:33.563Z,16.71
2023-05-17T13:06:33.925Z,16.65
2023-05-17T13:07:34.245Z,16.60
2023-05-17T13:08:34.441Z,16.68